createdAt,value
2022-08-14T00:00:59.638Z,26.27
2022-08-14T00:02:02.924Z,26.26
2022-08-14T00:03:04.632Z,26.25
2022-08-14T00:04:35.862Z,26.24
2022-08-14T00:05:27.790Z,26.20
2022-08-14T00:06:29.526Z,26.18
2022-08-14T00:07:31.027Z,26.17
2022-08-14T00:08:44.900Z,26.17
2022-08-14T00:10:02.457Z,26.15
2022-08-14T00:11:08.712Z,26.13
2022-08-14T00:12:23.804Z,26.14
2022-08-14T00:13:28.851Z,26.12
2022-08-14T00:14:32.546Z,26.11
2022-08-14T00:15:43.623Z,26.10
2022-08-14T00:16:46.305Z,26.10
2022-08-14T00:17:53.872Z,26.07
2022-08-14T00:19:06.506Z,26.00
2022-08-14T00:20:24.017Z,26.00
2022-08-14T00:21:31.117Z,26.01
2022-08-14T00:22:56.251Z,26.02
2022-08-14T00:23:56.809Z,26.01
2022-08-14T00:25:03.639Z,26.00
2022-08-14T00:26:06.692Z,25.97
2022-08-14T00:27:10.080Z,25.96
2022-08-14T00:28:15.364Z,25.94
2022-08-14T00:29:19.289Z,25.91
2022-08-14T00:30:21.188Z,25.89
2022-08-14T00:31:35.011Z,25.87
2022-08-14T00:32:55.723Z,25.87
2022-08-14T00:33:58.785Z,25.86
2022-08-14T00:35:19.555Z,25.80
2022-08-14T00:36:47.017Z,25.81
2022-08-14T00:37:45.537Z,25.80
2022-08-14T00:38:47.303Z,25.80
2022-08-14T00:39:49.067Z,25.79
2022-08-14T00:40:51.107Z,25.75
2022-08-14T00:41:56.246Z,25.73
2022-08-14T00:42:58.945Z,25.69
2022-08-14T00:44:00.443Z,25.69
2022-08-14T00:45:03.786Z,25.68
2022-08-14T00:46:08.104Z,25.69
2022-08-14T00:47:10.832Z,25.68
2022-08-14T00:48:12.708Z,25.68
2022-08-14T00:49:37.767Z,25.68
2022-08-14T00:50:40.064Z,25.66
2022-08-14T00:51:44.186Z,25.65
2022-08-14T00:52:46.448Z,25.64
2022-08-14T00:53:53.735Z,25.63
2022-08-14T00:54:58.298Z,25.62
2022-08-14T00:56:00.029Z,25.61
2022-08-14T00:57:01.557Z,25.61
2022-08-14T00:58:27.986Z,25.62
2022-08-14T00:59:35.703Z,25.63
2022-08-14T01:00:43.079Z,25.60
2022-08-14T01:01:54.335Z,25.60
2022-08-14T01:02:55.978Z,25.58
2022-08-14T01:04:01.508Z,25.53
2022-08-14T01:05:08.470Z,25.52
2022-08-14T01:06:10.612Z,25.52
2022-08-14T01:07:20.853Z,25.49
2022-08-14T01:08:51.253Z,25.45
2022-08-14T01:09:45.456Z,25.43
2022-08-14T01:10:53.270Z,25.41
2022-08-14T01:11:57.209Z,25.31
2022-08-14T01:13:04.567Z,25.40
2022-08-14T01:14:28.202Z,25.40
2022-08-14T01:15:31.719Z,25.39
2022-08-14T01:16:53.197Z,25.39
2022-08-14T01:18:30.253Z,25.38
2022-08-14T01:19:50.303Z,25.35
2022-08-14T01:21:04.276Z,25.32
2022-08-14T01:22:07.429Z,25.30
2022-08-14T01:23:16.548Z,25.31
2022-08-14T01:24:24.743Z,25.24
2022-08-14T01:25:32.522Z,25.30
2022-08-14T01:26:39.142Z,25.29
2022-08-14T01:27:53.829Z,25.27
2022-08-14T01:28:59.489Z,25.28
2022-08-14T01:30:03.970Z,25.25
2022-08-14T01:31:14.215Z,25.23
2022-08-14T01:32:23.244Z,25.22
2022-08-14T01:33:29.191Z,25.15
2022-08-14T01:35:20.115Z,25.21
2022-08-14T01:36:03.623Z,25.22
2022-08-14T01:37:07.500Z,25.22
2022-08-14T01:38:15.181Z,25.22
2022-08-14T01:39:18.414Z,25.21
2022-08-14T01:40:25.576Z,25.21
2022-08-14T01:41:36.072Z,25.20
2022-08-14T01:42:37.569Z,25.20
2022-08-14T01:43:56.670Z,25.21
2022-08-14T01:44:58.571Z,25.18
2022-08-14T01:46:06.806Z,25.16
2022-08-14T01:47:12.258Z,25.17
2022-08-14T01:48:23.603Z,25.14
2022-08-14T01:49:27.231Z,25.13
2022-08-14T01:50:37.226Z,25.11
2022-08-14T01:51:39.445Z,25.10
2022-08-14T01:52:59.867Z,25.08
2022-08-14T01:54:03.417Z,25.07
2022-08-14T01:55:06.742Z,25.02
2022-08-14T01:56:12.064Z,25.00
2022-08-14T01:57:19.937Z,25.00
2022-08-14T01:58:28.806Z,24.98
2022-08-14T01:59:37.945Z,24.92
2022-08-14T02:00:40.097Z,24.90
2022-08-14T02:01:51.188Z,24.90
2022-08-14T02:02:53.747Z,24.91
2022-08-14T02:03:56.989Z,24.91
2022-08-14T02:04:59.586Z,24.91
2022-08-14T02:06:04.049Z,24.90
2022-08-14T02:07:34.330Z,24.89
2022-08-14T02:08:52.850Z,24.90
2022-08-14T02:09:56.872Z,24.88
2022-08-14T02:11:17.097Z,24.89
2022-08-14T02:12:26.284Z,24.87
2022-08-14T02:13:30.867Z,24.86
2022-08-14T02:14:33.112Z,24.83
2022-08-14T02:15:40.856Z,24.83
2022-08-14T02:16:46.443Z,24.81
2022-08-14T02:17:51.113Z,24.82
2022-08-14T02:18:59.023Z,24.81
2022-08-14T02:20:00.497Z,24.80
2022-08-14T02:21:04.921Z,24.80
2022-08-14T02:22:06.717Z,24.80
2022-08-14T02:23:11.975Z,24.79
2022-08-14T02:24:39.289Z,24.78
2022-08-14T02:25:35.169Z,24.77
2022-08-14T02:28:19.078Z,24.77
2022-08-14T02:28:25.870Z,24.77
2022-08-14T02:29:22.249Z,24.74
2022-08-14T02:30:26.247Z,24.73
2022-08-14T02:31:42.083Z,24.72
2022-08-14T02:32:46.012Z,24.70
2022-08-14T02:33:48.211Z,24.69
2022-08-14T02:34:49.817Z,24.68
2022-08-14T02:36:05.252Z,24.65
2022-08-14T02:37:18.081Z,24.65
2022-08-14T02:38:30.491Z,24.62
2022-08-14T02:39:40.580Z,24.62
2022-08-14T02:40:42.116Z,24.62
2022-08-14T02:41:52.353Z,24.61
2022-08-14T02:42:57.504Z,24.62
2022-08-14T02:44:39.538Z,24.59
2022-08-14T02:45:44.422Z,24.61
2022-08-14T02:46:49.713Z,24.61
2022-08-14T02:47:57.282Z,24.57
2022-08-14T02:49:01.651Z,24.55
2022-08-14T02:50:07.102Z,24.52
2022-08-14T02:51:10.924Z,24.50
2022-08-14T02:52:26.566Z,24.51
2022-08-14T02:53:29.739Z,24.51
2022-08-14T02:54:34.219Z,24.51
2022-08-14T02:55:36.170Z,24.50
2022-08-14T02:57:15.411Z,24.49
2022-08-14T02:58:03.563Z,24.48
2022-08-14T02:59:07.824Z,24.48
2022-08-14T03:00:11.172Z,24.47
2022-08-14T03:01:13.095Z,24.45
2022-08-14T03:02:33.485Z,24.41
2022-08-14T03:03:38.760Z,24.39
2022-08-14T03:04:40.444Z,24.35
2022-08-14T03:05:41.958Z,24.32
2022-08-14T03:07:06.115Z,24.31
2022-08-14T03:08:07.891Z,24.30
2022-08-14T03:09:09.924Z,24.30
2022-08-14T03:10:27.723Z,24.29
2022-08-14T03:11:34.716Z,24.30
2022-08-14T03:12:37.213Z,24.31
2022-08-14T03:13:43.019Z,24.30
2022-08-14T03:14:50.119Z,24.31
2022-08-14T03:15:54.991Z,24.31
2022-08-14T03:16:57.936Z,24.32
2022-08-14T03:18:00.907Z,24.32
2022-08-14T03:19:02.723Z,24.33
2022-08-14T03:20:07.116Z,24.32
2022-08-14T03:21:16.222Z,24.31
2022-08-14T03:22:18.002Z,24.30
2022-08-14T03:23:19.845Z,24.29
2022-08-14T03:24:24.469Z,24.28
2022-08-14T03:25:27.070Z,24.28
2022-08-14T03:26:30.252Z,24.27
2022-08-14T03:27:35.303Z,24.25
2022-08-14T03:28:50.062Z,24.27
2022-08-14T03:29:52.827Z,24.26
2022-08-14T03:30:54.766Z,24.27
2022-08-14T03:31:56.567Z,24.27
2022-08-14T03:32:58.242Z,24.26
2022-08-14T03:34:00.929Z,24.27
2022-08-14T03:35:02.407Z,24.26
2022-08-14T03:37:50.763Z,24.26
2022-08-14T03:39:09.496Z,24.24
2022-08-14T03:39:15.647Z,24.24
2022-08-14T03:40:20.426Z,24.23
2022-08-14T03:41:22.969Z,24.23
2022-08-14T03:42:25.255Z,24.20
2022-08-14T03:43:38.058Z,24.20
2022-08-14T03:45:18.514Z,24.19
2022-08-14T03:46:38.587Z,24.17
2022-08-14T03:47:46.657Z,24.16
2022-08-14T03:48:48.971Z,24.15
2022-08-14T03:49:56.152Z,24.13
2022-08-14T03:51:01.430Z,24.13
2022-08-14T03:52:18.187Z,24.13
2022-08-14T03:53:26.295Z,24.13
2022-08-14T03:54:28.206Z,24.13
2022-08-14T03:55:30.347Z,24.12
2022-08-14T03:56:33.029Z,24.08
2022-08-14T03:57:37.240Z,24.05
2022-08-14T03:58:39.249Z,24.04
2022-08-14T03:59:40.832Z,24.04
2022-08-14T04:00:46.136Z,24.03
2022-08-14T04:01:58.155Z,24.01
2022-08-14T04:03:04.751Z,24.01
2022-08-14T04:04:08.537Z,24.00
2022-08-14T04:05:12.237Z,24.01
2022-08-14T04:06:21.146Z,24.00
2022-08-14T04:07:23.245Z,23.98
2022-08-14T04:08:30.689Z,23.97
2022-08-14T04:09:33.183Z,23.98
2022-08-14T04:10:34.830Z,23.96
2022-08-14T04:11:36.990Z,23.96
2022-08-14T04:12:40.183Z,23.94
2022-08-14T04:13:42.277Z,23.91
2022-08-14T04:14:43.863Z,23.89
2022-08-14T04:15:56.387Z,23.89
2022-08-14T04:17:04.855Z,23.90
2022-08-14T04:18:11.874Z,23.86
2022-08-14T04:19:15.915Z,23.88
2022-08-14T04:20:25.616Z,23.86
2022-08-14T04:21:29.436Z,23.87
2022-08-14T04:22:32.869Z,23.87
2022-08-14T04:23:35.259Z,23.87
2022-08-14T04:24:38.405Z,23.88
2022-08-14T04:25:40.679Z,23.89
2022-08-14T04:26:44.447Z,23.89
2022-08-14T04:28:01.697Z,23.88
2022-08-14T04:29:14.686Z,23.90
2022-08-14T04:30:24.198Z,23.89
2022-08-14T04:32:59.062Z,23.90
2022-08-14T04:33:10.490Z,23.89
2022-08-14T04:34:20.813Z,23.89
2022-08-14T04:35:55.591Z,23.88
2022-08-14T04:37:08.935Z,23.81
2022-08-14T04:38:37.024Z,23.89
2022-08-14T04:39:58.697Z,23.88
2022-08-14T04:41:32.643Z,23.89
2022-08-14T04:42:52.779Z,23.87
2022-08-14T04:43:54.361Z,23.88
2022-08-14T04:45:00.746Z,23.88
2022-08-14T04:46:03.380Z,23.86
2022-08-14T04:47:26.938Z,23.84
2022-08-14T04:48:38.812Z,23.81
2022-08-14T04:49:56.763Z,23.81
2022-08-14T04:50:59.779Z,23.80
2022-08-14T04:52:03.264Z,23.81
2022-08-14T04:53:23.061Z,23.81
2022-08-14T04:54:27.932Z,23.79
2022-08-14T04:55:29.784Z,23.80
2022-08-14T04:56:34.495Z,23.79
2022-08-14T04:57:37.936Z,23.79
2022-08-14T04:58:39.715Z,23.79
2022-08-14T04:59:42.836Z,23.77
2022-08-14T05:00:45.097Z,23.78
2022-08-14T05:01:52.896Z,23.78
2022-08-14T05:02:57.945Z,23.76
2022-08-14T05:03:59.550Z,23.75
2022-08-14T05:05:01.446Z,23.75
2022-08-14T05:06:04.190Z,23.75
2022-08-14T05:07:08.906Z,23.75
2022-08-14T05:08:31.704Z,23.75
2022-08-14T05:09:35.773Z,23.76
2022-08-14T05:10:44.065Z,23.75
2022-08-14T05:11:46.064Z,23.74
2022-08-14T05:13:13.308Z,23.75
2022-08-14T05:14:33.957Z,23.73
2022-08-14T05:15:32.891Z,23.75
2022-08-14T05:16:34.435Z,23.74
2022-08-14T05:17:44.126Z,23.75
2022-08-14T05:19:25.121Z,23.75
2022-08-14T05:21:57.840Z,23.78
2022-08-14T05:21:59.302Z,23.78
2022-08-14T05:22:56.146Z,23.78
2022-08-14T05:23:57.793Z,23.80
2022-08-14T05:25:01.967Z,23.82
2022-08-14T05:26:03.811Z,23.84
2022-08-14T05:27:05.444Z,23.84
2022-08-14T05:28:16.181Z,23.86
2022-08-14T05:29:18.044Z,23.87
2022-08-14T05:30:20.075Z,23.88
2022-08-14T05:31:21.597Z,23.90
2022-08-14T05:32:23.394Z,23.92
2022-08-14T05:33:29.445Z,23.94
2022-08-14T05:34:32.240Z,23.96
2022-08-14T05:35:34.821Z,23.98
2022-08-14T05:36:37.678Z,24.00
2022-08-14T05:37:44.520Z,24.02
2022-08-14T05:38:47.885Z,24.05
2022-08-14T05:39:49.611Z,24.08
2022-08-14T05:40:51.758Z,24.10
2022-08-14T05:41:54.857Z,24.14
2022-08-14T05:42:57.043Z,24.16
2022-08-14T05:43:59.687Z,24.19
2022-08-14T05:45:01.559Z,24.22
2022-08-14T05:46:03.054Z,24.24
2022-08-14T05:47:07.371Z,24.27
2022-08-14T05:48:32.695Z,24.31
2022-08-14T05:49:34.870Z,24.34
2022-08-14T05:50:40.355Z,24.38
2022-08-14T05:51:46.847Z,24.42
2022-08-14T05:52:49.260Z,24.44
2022-08-14T05:54:00.020Z,24.47
2022-08-14T05:55:04.664Z,24.51
2022-08-14T05:56:06.426Z,24.53
2022-08-14T05:57:08.336Z,24.56
2022-08-14T05:58:11.402Z,24.59
2022-08-14T05:59:13.011Z,24.62
2022-08-14T06:00:28.371Z,24.65
2022-08-14T06:01:31.528Z,24.68
2022-08-14T06:02:33.754Z,24.70
2022-08-14T06:03:35.621Z,24.73
2022-08-14T06:04:38.350Z,24.76
2022-08-14T06:05:39.954Z,24.80
2022-08-14T06:06:41.882Z,24.82
2022-08-14T06:07:44.551Z,24.85
2022-08-14T06:08:47.044Z,24.86
2022-08-14T06:09:51.111Z,24.89
2022-08-14T06:10:55.606Z,24.93
2022-08-14T06:11:57.418Z,24.97
2022-08-14T06:13:03.396Z,25.01
2022-08-14T06:14:12.269Z,24.98
2022-08-14T06:15:16.123Z,25.08
2022-08-14T06:16:21.011Z,25.09
2022-08-14T06:17:26.158Z,25.13
2022-08-14T06:18:28.096Z,25.15
2022-08-14T06:19:33.891Z,25.17
2022-08-14T06:20:35.444Z,25.20
2022-08-14T06:21:37.327Z,25.23
2022-08-14T06:22:39.757Z,25.26
2022-08-14T06:23:41.521Z,25.30
2022-08-14T06:24:44.121Z,25.32
2022-08-14T06:25:45.729Z,25.35
2022-08-14T06:26:56.697Z,25.39
2022-08-14T06:28:05.615Z,25.42
2022-08-14T06:29:27.139Z,25.45
2022-08-14T06:30:46.039Z,25.47
2022-08-14T06:31:54.602Z,25.49
2022-08-14T06:33:06.361Z,25.55
2022-08-14T06:35:04.467Z,25.59
2022-08-14T06:35:30.009Z,25.63
2022-08-14T06:36:32.125Z,25.65
2022-08-14T06:37:43.971Z,25.69
2022-08-14T06:38:46.197Z,25.73
2022-08-14T06:39:51.949Z,25.77
2022-08-14T06:40:54.494Z,25.80
2022-08-14T06:41:58.075Z,25.83
2022-08-14T06:43:04.140Z,25.85
2022-08-14T06:44:09.765Z,25.89
2022-08-14T06:45:11.371Z,25.91
2022-08-14T06:46:32.418Z,25.93
2022-08-14T06:47:36.407Z,25.97
2022-08-14T06:48:37.959Z,26.02
2022-08-14T06:49:48.537Z,26.06
2022-08-14T06:50:59.123Z,26.08
2022-08-14T06:52:00.799Z,26.11
2022-08-14T06:53:03.267Z,26.15
2022-08-14T06:54:04.823Z,26.18
2022-08-14T06:55:10.934Z,26.20
2022-08-14T06:56:13.491Z,26.15
2022-08-14T06:57:15.571Z,26.27
2022-08-14T06:58:28.637Z,26.30
2022-08-14T06:59:31.107Z,26.33
2022-08-14T07:00:35.319Z,26.36
2022-08-14T07:01:56.534Z,26.41
2022-08-14T07:03:17.846Z,26.44
2022-08-14T07:04:39.742Z,26.49
2022-08-14T07:05:54.992Z,26.53
2022-08-14T07:06:59.311Z,26.55
2022-08-14T07:08:01.238Z,26.58
2022-08-14T07:09:04.863Z,26.60
2022-08-14T07:10:07.208Z,26.65
2022-08-14T07:11:08.806Z,26.66
2022-08-14T07:12:34.979Z,26.69
2022-08-14T07:13:33.630Z,26.75
2022-08-14T07:14:35.435Z,26.77
2022-08-14T07:15:39.703Z,26.79
2022-08-14T07:16:43.833Z,26.84
2022-08-14T07:17:51.868Z,26.85
2022-08-14T07:18:54.280Z,26.90
2022-08-14T07:19:56.859Z,26.94
2022-08-14T07:20:59.022Z,26.97
2022-08-14T07:22:00.918Z,27.01
2022-08-14T07:23:11.073Z,27.05
2022-08-14T07:24:31.027Z,27.08
2022-08-14T07:25:34.248Z,27.12
2022-08-14T07:26:39.949Z,27.17
2022-08-14T07:27:42.958Z,27.17
2022-08-14T07:28:44.524Z,27.22
2022-08-14T07:29:46.045Z,27.26
2022-08-14T07:30:51.085Z,27.31
2022-08-14T07:31:53.650Z,27.33
2022-08-14T07:32:55.212Z,27.36
2022-08-14T07:33:56.697Z,27.40
2022-08-14T07:35:00.216Z,27.43
2022-08-14T07:36:02.460Z,27.47
2022-08-14T07:37:05.781Z,27.48
2022-08-14T07:38:07.622Z,27.50
2022-08-14T07:39:13.056Z,27.55
2022-08-14T07:40:15.083Z,27.58
2022-08-14T07:41:34.013Z,27.62
2022-08-14T07:42:37.823Z,27.67
2022-08-14T07:43:42.721Z,27.70
2022-08-14T07:44:46.240Z,27.74
2022-08-14T07:45:52.174Z,27.76
2022-08-14T07:46:55.614Z,27.79
2022-08-14T07:47:57.950Z,27.82
2022-08-14T07:48:59.537Z,27.87
2022-08-14T07:50:02.461Z,27.89
2022-08-14T07:51:10.676Z,27.92
2022-08-14T07:52:12.922Z,27.98
2022-08-14T07:53:14.591Z,28.03
2022-08-14T07:54:22.826Z,28.07
2022-08-14T07:55:31.007Z,28.11
2022-08-14T07:56:48.137Z,28.15
2022-08-14T07:57:52.005Z,28.19
2022-08-14T07:58:53.630Z,28.22
2022-08-14T08:00:00.019Z,28.25
2022-08-14T08:01:02.702Z,28.28
2022-08-14T08:02:05.975Z,28.31
2022-08-14T08:03:19.467Z,28.37
2022-08-14T08:04:27.141Z,28.40
2022-08-14T08:05:28.923Z,28.42
2022-08-14T08:06:30.410Z,28.47
2022-08-14T08:07:32.247Z,28.51
2022-08-14T08:08:34.550Z,28.54
2022-08-14T08:09:37.153Z,28.59
2022-08-14T08:11:01.939Z,28.62
2022-08-14T08:12:04.976Z,28.68
2022-08-14T08:13:12.309Z,28.72
2022-08-14T08:14:17.562Z,28.74
2022-08-14T08:15:19.722Z,28.78
2022-08-14T08:16:26.187Z,28.82
2022-08-14T08:17:34.782Z,28.89
2022-08-14T08:18:40.642Z,28.93
2022-08-14T08:19:42.360Z,28.96
2022-08-14T08:20:53.530Z,29.01
2022-08-14T08:21:55.118Z,29.02
2022-08-14T08:23:00.569Z,29.05
2022-08-14T08:24:07.562Z,29.10
2022-08-14T08:25:13.531Z,29.13
2022-08-14T08:26:15.939Z,29.19
2022-08-14T08:27:19.912Z,29.21
2022-08-14T08:28:26.586Z,29.22
2022-08-14T08:29:29.471Z,29.25
2022-08-14T08:30:31.973Z,29.30
2022-08-14T08:31:35.204Z,29.31
2022-08-14T08:32:41.028Z,29.38
2022-08-14T08:33:43.630Z,29.41
2022-08-14T08:34:50.996Z,29.44
2022-08-14T08:35:52.529Z,29.48
2022-08-14T08:36:54.115Z,29.51
2022-08-14T08:39:14.042Z,29.55
2022-08-14T08:39:30.813Z,29.63
2022-08-14T08:40:52.462Z,29.69
2022-08-14T08:41:54.263Z,29.74
2022-08-14T08:42:55.723Z,29.77
2022-08-14T08:44:05.596Z,29.80
2022-08-14T08:45:11.801Z,29.86
2022-08-14T08:46:21.442Z,29.91
2022-08-14T08:47:24.899Z,29.95
2022-08-14T08:48:31.493Z,30.00
2022-08-14T08:49:48.179Z,30.04
2022-08-14T08:50:54.615Z,30.09
2022-08-14T08:52:04.361Z,30.12
2022-08-14T08:53:07.846Z,30.17
2022-08-14T08:54:18.573Z,30.22
2022-08-14T08:55:26.042Z,30.27
2022-08-14T08:56:37.735Z,30.30
2022-08-14T08:57:42.531Z,30.36
2022-08-14T08:58:44.011Z,30.39
2022-08-14T08:59:45.499Z,30.43
2022-08-14T09:00:50.666Z,30.48
2022-08-14T09:01:58.777Z,30.54
2022-08-14T09:03:03.314Z,30.57
2022-08-14T09:04:07.673Z,30.62
2022-08-14T09:05:16.698Z,30.67
2022-08-14T09:07:01.706Z,30.70
2022-08-14T09:07:39.683Z,30.73
2022-08-14T09:08:45.258Z,30.78
2022-08-14T09:09:53.576Z,30.79
2022-08-14T09:10:59.370Z,30.83
2022-08-14T09:12:02.255Z,30.84
2022-08-14T09:13:04.679Z,30.86
2022-08-14T09:14:06.180Z,30.87
2022-08-14T09:15:11.991Z,30.92
2022-08-14T09:16:19.158Z,30.96
2022-08-14T09:17:21.247Z,31.01
2022-08-14T09:18:27.786Z,31.04
2022-08-14T09:19:29.304Z,31.09
2022-08-14T09:20:31.605Z,31.14
2022-08-14T09:21:34.191Z,31.19
2022-08-14T09:22:42.470Z,31.23
2022-08-14T09:24:30.183Z,31.29
2022-08-14T09:25:11.075Z,31.34
2022-08-14T09:26:21.098Z,31.38
2022-08-14T09:27:23.392Z,31.45
2022-08-14T09:28:25.301Z,31.50
2022-08-14T09:29:28.659Z,31.56
2022-08-14T09:30:34.172Z,31.60
2022-08-14T09:31:43.078Z,31.65
2022-08-14T09:33:10.856Z,31.63
2022-08-14T09:34:28.363Z,31.62
2022-08-14T09:35:46.464Z,31.67
2022-08-14T09:37:06.653Z,31.69
2022-08-14T09:38:27.349Z,31.73
2022-08-14T09:39:35.368Z,31.76
2022-08-14T09:40:50.434Z,31.79
2022-08-14T09:42:20.473Z,31.82
2022-08-14T09:43:22.678Z,31.87
2022-08-14T09:44:41.902Z,31.91
2022-08-14T09:45:53.595Z,31.99
2022-08-14T09:46:58.567Z,32.03
2022-08-14T09:48:00.562Z,32.07
2022-08-14T09:49:04.378Z,32.11
2022-08-14T09:50:15.280Z,32.14
2022-08-14T09:51:21.221Z,32.19
2022-08-14T09:52:34.162Z,32.27
2022-08-14T09:54:18.812Z,32.31
2022-08-14T09:55:05.926Z,32.35
2022-08-14T09:56:10.124Z,32.40
2022-08-14T09:57:13.887Z,32.46
2022-08-14T09:58:22.527Z,32.48
2022-08-14T09:59:27.857Z,32.49
2022-08-14T10:00:40.642Z,32.54
2022-08-14T10:01:43.954Z,32.58
2022-08-14T10:02:54.796Z,32.60
2022-08-14T10:03:56.729Z,32.64
2022-08-14T10:05:09.952Z,32.70
2022-08-14T10:06:17.588Z,32.76
2022-08-14T10:07:29.662Z,32.83
2022-08-14T10:08:39.771Z,32.85
2022-08-14T10:09:59.465Z,32.94
2022-08-14T10:11:14.618Z,33.01
2022-08-14T10:12:28.832Z,32.93
2022-08-14T10:13:52.592Z,32.97
2022-08-14T10:14:53.331Z,33.01
2022-08-14T10:15:58.590Z,33.03
2022-08-14T10:17:02.451Z,33.01
2022-08-14T10:18:18.241Z,32.98
2022-08-14T10:19:20.792Z,32.97
2022-08-14T10:20:39.371Z,32.96
2022-08-14T10:21:58.854Z,33.05
2022-08-14T10:23:18.315Z,33.15
2022-08-14T10:24:23.419Z,33.21
2022-08-14T10:25:39.133Z,33.27
2022-08-14T10:26:54.354Z,33.35
2022-08-14T10:27:59.056Z,33.41
2022-08-14T10:29:18.302Z,33.43
2022-08-14T10:30:26.252Z,33.42
2022-08-14T10:31:45.006Z,33.46
2022-08-14T10:32:51.856Z,33.51
2022-08-14T10:34:00.396Z,33.53
2022-08-14T10:35:13.567Z,33.56
2022-08-14T10:36:36.888Z,33.57
2022-08-14T10:37:44.120Z,33.63
2022-08-14T10:38:50.534Z,33.73
2022-08-14T10:40:05.613Z,33.84
2022-08-14T10:41:13.359Z,33.98
2022-08-14T10:42:18.382Z,34.02
2022-08-14T10:43:26.034Z,34.07
2022-08-14T10:44:32.697Z,34.12
2022-08-14T10:45:35.720Z,34.17
2022-08-14T10:47:36.218Z,34.26
2022-08-14T10:48:34.562Z,34.29
2022-08-14T10:49:39.677Z,34.19
2022-08-14T10:50:46.488Z,34.14
2022-08-14T10:52:06.021Z,34.13
2022-08-14T10:53:08.196Z,34.12
2022-08-14T10:54:26.178Z,34.08
2022-08-14T10:55:39.353Z,34.05
2022-08-14T10:56:47.315Z,34.08
2022-08-14T10:57:52.501Z,34.12
2022-08-14T10:59:00.191Z,34.23
2022-08-14T11:00:02.734Z,34.21
2022-08-14T11:01:07.885Z,34.22
2022-08-14T11:02:36.116Z,34.35
2022-08-14T11:03:56.462Z,34.47
2022-08-14T11:05:01.042Z,34.49
2022-08-14T11:06:17.310Z,34.53
2022-08-14T11:07:21.374Z,34.55
2022-08-14T11:08:32.711Z,34.60
2022-08-14T11:09:34.222Z,34.72
2022-08-14T11:10:46.227Z,34.87
2022-08-14T11:11:54.948Z,34.94
2022-08-14T11:12:57.061Z,35.03
2022-08-14T11:13:58.583Z,35.09
2022-08-14T11:15:02.489Z,35.10
2022-08-14T11:16:04.464Z,35.07
2022-08-14T11:17:09.013Z,35.16
2022-08-14T11:18:12.066Z,35.22
2022-08-14T11:19:24.292Z,35.29
2022-08-14T11:20:28.170Z,35.32
2022-08-14T11:21:30.224Z,35.38
2022-08-14T11:22:55.889Z,35.45
2022-08-14T11:23:57.164Z,35.48
2022-08-14T11:25:01.887Z,35.52
2022-08-14T11:26:08.682Z,35.49
2022-08-14T11:27:12.691Z,35.49
2022-08-14T11:28:18.961Z,35.45
2022-08-14T11:29:21.472Z,35.44
2022-08-14T11:30:50.559Z,35.41
2022-08-14T11:31:51.852Z,35.34
2022-08-14T11:32:55.153Z,35.33
2022-08-14T11:33:58.609Z,35.32
2022-08-14T11:35:03.236Z,35.32
2022-08-14T11:36:17.819Z,35.29
2022-08-14T11:37:36.451Z,35.29
2022-08-14T11:38:45.276Z,35.30
2022-08-14T11:39:48.629Z,35.24
2022-08-14T11:40:52.808Z,35.28
2022-08-14T11:41:58.059Z,35.30
2022-08-14T11:43:01.297Z,35.34
2022-08-14T11:44:04.833Z,35.37
2022-08-14T11:45:23.136Z,35.42
2022-08-14T11:46:30.236Z,35.44
2022-08-14T11:47:44.130Z,35.42
2022-08-14T11:49:05.042Z,35.33
2022-08-14T11:50:25.078Z,35.28
2022-08-14T11:51:53.787Z,35.30
2022-08-14T11:52:57.117Z,35.35
2022-08-14T11:54:05.452Z,35.38
2022-08-14T11:55:11.656Z,35.46
2022-08-14T11:56:13.127Z,35.47
2022-08-14T11:57:15.463Z,35.44
2022-08-14T11:58:24.676Z,35.41
2022-08-14T11:59:32.805Z,35.39
2022-08-14T12:00:45.943Z,35.36
2022-08-14T12:01:48.762Z,35.37
2022-08-14T12:03:03.454Z,35.36
2022-08-14T12:04:09.255Z,35.39
2022-08-14T12:05:39.870Z,35.41
2022-08-14T12:06:52.577Z,35.37
2022-08-14T12:07:55.229Z,35.38
2022-08-14T12:08:56.910Z,35.38
2022-08-14T12:10:01.946Z,35.32
2022-08-14T12:11:23.432Z,35.29
2022-08-14T12:12:36.152Z,35.26
2022-08-14T12:13:38.117Z,35.22
2022-08-14T12:14:48.557Z,35.17
2022-08-14T12:15:57.264Z,35.14
2022-08-14T12:17:02.123Z,35.15
2022-08-14T12:18:04.550Z,35.14
2022-08-14T12:19:06.267Z,35.17
2022-08-14T12:20:11.626Z,35.16
2022-08-14T12:21:26.013Z,35.15
2022-08-14T12:22:34.488Z,35.16
2022-08-14T12:23:36.299Z,35.21
2022-08-14T12:24:40.101Z,35.24
2022-08-14T12:25:42.383Z,35.25
2022-08-14T12:26:44.014Z,35.28
2022-08-14T12:27:59.059Z,35.30
2022-08-14T12:29:09.720Z,35.28
2022-08-14T12:30:14.526Z,35.34
2022-08-14T12:31:22.814Z,35.39
2022-08-14T12:32:24.314Z,35.44
2022-08-14T12:33:33.206Z,35.48
2022-08-14T12:34:37.071Z,35.46
2022-08-14T12:35:39.542Z,35.43
2022-08-14T12:36:41.704Z,35.45
2022-08-14T12:37:49.698Z,35.46
2022-08-14T12:38:54.215Z,35.45
2022-08-14T12:39:55.953Z,35.47
2022-08-14T12:40:58.690Z,35.42
2022-08-14T12:42:11.896Z,35.41
2022-08-14T12:43:29.395Z,35.49
2022-08-14T12:44:32.174Z,35.51
2022-08-14T12:45:35.401Z,35.52
2022-08-14T12:46:37.900Z,35.55
2022-08-14T12:47:41.394Z,35.59
2022-08-14T12:48:50.382Z,35.57
2022-08-14T12:49:57.480Z,35.60
2022-08-14T12:50:59.374Z,35.64
2022-08-14T12:52:01.267Z,35.68
2022-08-14T12:53:14.720Z,35.74
2022-08-14T12:54:27.174Z,35.74
2022-08-14T12:55:32.602Z,35.78
2022-08-14T12:56:50.983Z,35.84
2022-08-14T12:57:56.247Z,35.87
2022-08-14T12:58:58.221Z,35.90
2022-08-14T13:00:26.728Z,35.84
2022-08-14T13:01:28.928Z,35.71
2022-08-14T13:02:35.423Z,35.68
2022-08-14T13:03:37.515Z,35.67
2022-08-14T13:04:39.028Z,35.63
2022-08-14T13:05:44.804Z,35.59
2022-08-14T13:06:50.827Z,35.57
2022-08-14T13:07:53.279Z,35.56
2022-08-14T13:09:00.229Z,35.57
2022-08-14T13:10:45.883Z,35.58
2022-08-14T13:11:25.650Z,35.64
2022-08-14T13:12:33.648Z,35.65
2022-08-14T13:13:50.578Z,35.62
2022-08-14T13:14:55.105Z,35.63
2022-08-14T13:15:57.803Z,35.64
2022-08-14T13:17:00.115Z,35.65
2022-08-14T13:18:04.794Z,35.68
2022-08-14T13:19:09.754Z,35.72
2022-08-14T13:20:24.796Z,35.76
2022-08-14T13:21:28.899Z,35.80
2022-08-14T13:22:33.552Z,35.83
2022-08-14T13:23:40.800Z,35.83
2022-08-14T13:24:46.840Z,35.88
2022-08-14T13:25:56.214Z,35.89
2022-08-14T13:27:00.368Z,35.85
2022-08-14T13:28:01.851Z,35.85
2022-08-14T13:29:03.578Z,35.83
2022-08-14T13:30:10.427Z,35.82
2022-08-14T13:31:12.785Z,35.80
2022-08-14T13:32:14.518Z,35.80
2022-08-14T13:33:17.887Z,35.80
2022-08-14T13:34:23.421Z,35.83
2022-08-14T13:35:25.738Z,35.85
2022-08-14T13:36:54.443Z,35.88
2022-08-14T13:37:52.495Z,35.89
2022-08-14T13:38:56.227Z,35.92
2022-08-14T13:39:57.895Z,35.97
2022-08-14T13:40:59.835Z,35.97
2022-08-14T13:42:04.290Z,35.95
2022-08-14T13:43:09.610Z,35.93
2022-08-14T13:44:13.903Z,35.92
2022-08-14T13:45:15.702Z,35.83
2022-08-14T13:46:20.611Z,35.81
2022-08-14T13:47:30.482Z,35.80
2022-08-14T13:48:35.995Z,35.80
2022-08-14T13:49:40.261Z,35.80
2022-08-14T13:50:42.594Z,35.85
2022-08-14T13:51:49.352Z,35.87
2022-08-14T13:52:54.820Z,35.88
2022-08-14T13:54:10.566Z,35.90
2022-08-14T13:55:14.109Z,35.89
2022-08-14T13:56:36.368Z,35.86
2022-08-14T13:57:39.175Z,35.90
2022-08-14T13:58:51.491Z,35.90
2022-08-14T13:59:52.985Z,35.91
2022-08-14T14:00:58.282Z,35.92
2022-08-14T14:02:02.691Z,35.94
2022-08-14T14:03:05.631Z,35.96
2022-08-14T14:04:07.426Z,35.99
2022-08-14T14:05:18.754Z,35.96
2022-08-14T14:06:25.396Z,35.99
2022-08-14T14:07:26.886Z,36.01
2022-08-14T14:08:46.814Z,35.99
2022-08-14T14:09:52.676Z,35.92
2022-08-14T14:10:55.259Z,35.87
2022-08-14T14:11:58.473Z,35.87
2022-08-14T14:13:02.063Z,35.84
2022-08-14T14:14:04.964Z,35.84
2022-08-14T14:15:07.206Z,35.87
2022-08-14T14:16:11.734Z,35.81
2022-08-14T14:17:17.254Z,35.77
2022-08-14T14:18:33.938Z,35.77
2022-08-14T14:19:36.242Z,35.80
2022-08-14T14:20:37.750Z,35.82
2022-08-14T14:21:40.467Z,35.82
2022-08-14T14:23:02.402Z,35.84
2022-08-14T14:24:05.509Z,35.86
2022-08-14T14:25:07.509Z,35.87
2022-08-14T14:26:13.931Z,35.87
2022-08-14T14:27:39.450Z,35.88
2022-08-14T14:28:39.050Z,35.88
2022-08-14T14:29:47.417Z,35.81
2022-08-14T14:30:52.976Z,35.73
2022-08-14T14:31:55.578Z,35.70